Terminal Aerodrome Forecast
Issued by NWS Cleveland, OH

Home | Current Version | Previous Version | Graphics & Text | Print | Product List | Glossary On
Versions: 1 2 3 4 5 6 7 8 9 10 11 12 13 14 15 16 17 18 19 20 21 22 23
684
FTUS41 KCLE 251745
TAFCAK
TAF
KCAK 251745Z 2518/2618 20005KT P6SM SCT015 OVC040
      TEMPO 2518/2522 3SM -SHRA OVC015
     FM252200 26005KT 5SM -SHRA OVC015
     FM260300 28008KT P6SM OVC008
     FM261500 28008KT P6SM OVC015=

USA.gov is the U.S. government's official web portal to all federal, state and local government web resources and services.